createdAt,value
2017-10-29T00:00:27.267Z,9.60
2017-10-29T00:02:53.015Z,9.60
2017-10-29T00:05:18.777Z,9.61
2017-10-29T00:07:44.503Z,9.62
2017-10-29T00:10:10.294Z,9.65
2017-10-29T00:12:36.054Z,9.68
2017-10-29T00:15:01.809Z,9.61
2017-10-29T00:17:27.580Z,9.67
2017-10-29T00:19:53.340Z,9.65
2017-10-29T00:22:19.071Z,9.67
2017-10-29T00:24:44.846Z,9.69
2017-10-29T00:27:10.597Z,9.66
2017-10-29T00:29:36.379Z,9.65
2017-10-29T00:32:02.146Z,9.56
2017-10-29T00:34:27.930Z,9.52
2017-10-29T00:36:53.728Z,9.50
2017-10-29T00:39:19.478Z,9.57
2017-10-29T00:41:45.250Z,9.60
2017-10-29T00:44:11.035Z,9.57
2017-10-29T00:46:36.815Z,9.58
2017-10-29T00:49:02.579Z,9.59
2017-10-29T00:51:28.339Z,9.60
2017-10-29T00:53:54.119Z,9.61
2017-10-29T00:56:19.875Z,9.61
2017-10-29T00:58:45.664Z,9.62
2017-10-29T01:01:11.424Z,9.62
2017-10-29T01:03:37.207Z,9.63
2017-10-29T01:06:02.971Z,9.69
2017-10-29T01:08:29.484Z,9.68
2017-10-29T01:10:55.273Z,9.75
2017-10-29T01:13:21.019Z,9.79
2017-10-29T01:15:46.774Z,9.81
2017-10-29T01:18:12.543Z,9.76
2017-10-29T01:20:38.307Z,9.82
2017-10-29T01:23:04.058Z,9.80
2017-10-29T01:25:29.840Z,9.81
2017-10-29T01:27:55.612Z,9.84
2017-10-29T01:30:21.738Z,9.87
2017-10-29T01:32:47.487Z,9.91
2017-10-29T01:35:13.243Z,9.92
2017-10-29T01:37:39.012Z,9.91
2017-10-29T01:40:04.762Z,9.96
2017-10-29T01:42:30.561Z,9.98
2017-10-29T01:44:56.301Z,9.98
2017-10-29T01:47:22.044Z,10.05
2017-10-29T01:49:47.815Z,10.12
2017-10-29T01:52:13.592Z,10.16
2017-10-29T01:54:39.390Z,10.15
2017-10-29T01:57:05.155Z,10.15
2017-10-29T01:59:30.908Z,10.20
2017-10-29T02:01:56.676Z,10.25
2017-10-29T02:04:22.444Z,10.25
2017-10-29T02:06:48.200Z,10.20
2017-10-29T02:09:13.955Z,10.22
2017-10-29T02:11:39.719Z,10.19
2017-10-29T02:14:05.467Z,10.09
2017-10-29T02:16:31.236Z,9.97
2017-10-29T02:18:56.979Z,9.88
2017-10-29T02:21:22.740Z,9.84
2017-10-29T02:23:48.511Z,9.75
2017-10-29T02:26:14.319Z,9.66
2017-10-29T02:28:40.067Z,9.64
2017-10-29T02:31:05.831Z,9.61
2017-10-29T02:33:31.604Z,9.57
2017-10-29T02:35:57.364Z,9.56
2017-10-29T02:38:23.116Z,9.60
2017-10-29T02:40:48.900Z,9.61
2017-10-29T02:43:14.678Z,9.65
2017-10-29T02:45:40.446Z,9.57
2017-10-29T02:48:06.227Z,9.59
2017-10-29T02:50:32.431Z,9.56
2017-10-29T02:52:58.223Z,9.61
2017-10-29T02:55:23.984Z,9.66
2017-10-29T02:57:49.743Z,9.64
2017-10-29T03:00:15.523Z,9.66
2017-10-29T03:02:41.276Z,9.70
2017-10-29T03:05:07.059Z,9.69
2017-10-29T03:07:32.839Z,9.65
2017-10-29T03:09:58.579Z,9.65
2017-10-29T03:12:24.330Z,9.64
2017-10-29T03:14:50.100Z,9.67
2017-10-29T03:17:15.858Z,9.71
2017-10-29T03:19:41.606Z,9.73
2017-10-29T03:22:07.385Z,9.80
2017-10-29T03:24:33.144Z,9.84
2017-10-29T03:26:58.909Z,9.84
2017-10-29T03:29:24.698Z,9.82
2017-10-29T03:31:50.457Z,9.87
2017-10-29T03:34:16.235Z,9.89
2017-10-29T03:36:42.043Z,9.82
2017-10-29T03:39:07.836Z,9.80
2017-10-29T03:41:33.615Z,9.81
2017-10-29T03:43:59.363Z,9.81
2017-10-29T03:46:25.122Z,9.88
2017-10-29T03:48:50.863Z,9.94
2017-10-29T03:51:16.635Z,9.96
2017-10-29T03:53:42.420Z,9.91
2017-10-29T03:56:08.183Z,9.87
2017-10-29T03:58:33.915Z,9.88
2017-10-29T04:00:59.680Z,9.82
2017-10-29T04:03:25.451Z,9.77
2017-10-29T04:05:51.240Z,9.76
2017-10-29T04:08:16.986Z,9.89
2017-10-29T04:10:42.755Z,9.99
2017-10-29T04:13:08.511Z,9.94
2017-10-29T04:15:34.284Z,9.89
2017-10-29T04:18:00.042Z,9.90
2017-10-29T04:20:25.792Z,9.84
2017-10-29T04:22:52.874Z,9.85
2017-10-29T04:25:18.623Z,9.94
2017-10-29T04:27:44.386Z,10.03
2017-10-29T04:30:10.163Z,10.02
2017-10-29T04:32:35.939Z,10.09
2017-10-29T04:35:01.685Z,10.22
2017-10-29T04:37:27.516Z,10.30
2017-10-29T04:39:53.275Z,10.26
2017-10-29T04:42:19.050Z,10.31
2017-10-29T04:44:44.821Z,10.37
2017-10-29T04:47:10.575Z,10.34
2017-10-29T04:49:36.349Z,10.33
2017-10-29T04:52:02.136Z,10.36
2017-10-29T04:54:27.896Z,10.38
2017-10-29T04:56:53.658Z,10.39
2017-10-29T04:59:19.440Z,10.40
2017-10-29T05:01:45.201Z,10.36
2017-10-29T05:04:10.972Z,10.38
2017-10-29T05:06:36.725Z,10.43
2017-10-29T05:09:02.499Z,10.44
2017-10-29T05:11:28.272Z,10.37
2017-10-29T05:13:54.056Z,10.34
2017-10-29T05:16:19.807Z,10.29
2017-10-29T05:18:45.576Z,10.25
2017-10-29T05:21:11.335Z,10.29
2017-10-29T05:23:37.109Z,10.28
2017-10-29T05:26:02.884Z,10.32
2017-10-29T05:28:28.635Z,10.34
2017-10-29T05:30:54.443Z,10.36
2017-10-29T05:33:20.200Z,10.37
2017-10-29T05:35:45.980Z,10.37
2017-10-29T05:38:11.735Z,10.42
2017-10-29T05:40:37.527Z,10.40
2017-10-29T05:43:03.310Z,10.44
2017-10-29T05:45:29.108Z,10.44
2017-10-29T05:47:54.900Z,10.44
2017-10-29T05:50:20.676Z,10.51
2017-10-29T05:52:46.460Z,10.49
2017-10-29T05:55:12.230Z,10.49
2017-10-29T05:57:38.008Z,10.55
2017-10-29T06:00:03.778Z,10.59
2017-10-29T06:02:29.567Z,10.64
2017-10-29T06:04:55.355Z,10.67
2017-10-29T06:07:21.103Z,10.66
2017-10-29T06:09:46.873Z,10.70
2017-10-29T06:12:12.639Z,10.72
2017-10-29T06:14:38.384Z,10.68
2017-10-29T06:17:04.175Z,10.74
2017-10-29T06:19:29.944Z,10.76
2017-10-29T06:21:55.707Z,10.81
2017-10-29T06:24:21.455Z,10.84
2017-10-29T06:26:47.204Z,10.86
2017-10-29T06:29:12.970Z,10.91
2017-10-29T06:31:38.783Z,11.00
2017-10-29T06:34:04.580Z,11.05
2017-10-29T06:36:30.390Z,11.06
2017-10-29T06:38:56.147Z,11.07
2017-10-29T06:41:21.919Z,11.06
2017-10-29T06:43:47.678Z,11.09
2017-10-29T06:46:13.482Z,11.12
2017-10-29T06:48:39.239Z,11.13
2017-10-29T06:51:04.987Z,11.14
2017-10-29T06:53:30.767Z,11.14
2017-10-29T06:55:56.563Z,11.15
2017-10-29T06:58:22.378Z,11.14
2017-10-29T07:00:48.242Z,11.14
2017-10-29T07:03:14.028Z,11.11
2017-10-29T07:05:39.798Z,11.14
2017-10-29T07:08:05.679Z,11.13
2017-10-29T07:10:31.541Z,11.14
2017-10-29T07:12:57.318Z,11.12
2017-10-29T07:15:23.171Z,11.07
2017-10-29T07:17:49.059Z,11.06
2017-10-29T07:20:14.923Z,11.06
2017-10-29T07:22:40.749Z,11.11
2017-10-29T07:25:06.575Z,11.12
2017-10-29T07:27:32.339Z,11.08
2017-10-29T07:29:58.236Z,11.14
2017-10-29T07:32:24.028Z,11.11
2017-10-29T07:34:49.860Z,11.09
2017-10-29T07:37:15.676Z,11.11
2017-10-29T07:39:41.511Z,11.11
2017-10-29T07:42:07.338Z,11.12
2017-10-29T07:44:33.157Z,11.14
2017-10-29T07:46:58.956Z,11.18
2017-10-29T07:49:24.723Z,11.20
2017-10-29T07:51:50.544Z,11.22
2017-10-29T07:54:16.284Z,11.22
2017-10-29T07:56:42.029Z,11.21
2017-10-29T07:59:07.958Z,11.29
2017-10-29T08:01:33.736Z,11.30
2017-10-29T08:03:59.575Z,11.36
2017-10-29T08:06:25.372Z,11.40
2017-10-29T08:08:51.216Z,11.44
2017-10-29T08:11:17.059Z,11.47
2017-10-29T08:13:42.844Z,11.53
2017-10-29T08:16:08.647Z,11.56
2017-10-29T08:18:34.540Z,11.57
2017-10-29T08:21:00.412Z,11.68
2017-10-29T08:23:26.288Z,11.74
2017-10-29T08:25:52.064Z,11.81
2017-10-29T08:28:17.812Z,11.75
2017-10-29T08:30:43.658Z,11.77
2017-10-29T08:33:09.442Z,11.79
2017-10-29T08:35:35.308Z,11.86
2017-10-29T08:38:01.116Z,12.13
2017-10-29T08:40:26.952Z,12.41
2017-10-29T08:42:52.709Z,12.58
2017-10-29T08:45:18.592Z,12.57
2017-10-29T08:47:44.395Z,12.66
2017-10-29T08:50:10.174Z,12.63
2017-10-29T08:52:35.998Z,12.30
2017-10-29T08:55:01.814Z,12.37
2017-10-29T08:57:27.578Z,12.40
2017-10-29T08:59:53.415Z,12.32
2017-10-29T09:02:19.297Z,12.23
2017-10-29T09:04:45.048Z,12.22
2017-10-29T09:07:10.811Z,12.13
2017-10-29T09:09:36.636Z,12.02
2017-10-29T09:12:02.466Z,11.92
2017-10-29T09:14:28.323Z,11.88
2017-10-29T09:16:54.077Z,11.99
2017-10-29T09:19:19.932Z,12.00
2017-10-29T09:21:45.694Z,11.97
2017-10-29T09:24:11.475Z,11.96
2017-10-29T09:26:37.323Z,11.88
2017-10-29T09:29:03.135Z,11.85
2017-10-29T09:31:28.952Z,11.78
2017-10-29T09:33:54.763Z,11.76
2017-10-29T09:36:20.623Z,11.76
2017-10-29T09:38:46.414Z,11.79
2017-10-29T09:41:12.263Z,11.81
2017-10-29T09:43:38.083Z,11.78
2017-10-29T09:46:03.933Z,11.81
2017-10-29T09:48:30.247Z,11.81
2017-10-29T09:50:56.484Z,11.79
2017-10-29T09:53:23.126Z,11.77
2017-10-29T09:55:49.363Z,11.75
2017-10-29T09:58:15.964Z,11.75
2017-10-29T10:00:42.756Z,11.73
2017-10-29T10:03:09.019Z,11.75
2017-10-29T10:05:35.636Z,11.79
2017-10-29T10:08:01.504Z,11.76
2017-10-29T10:10:27.692Z,11.80
2017-10-29T10:12:53.822Z,11.83
2017-10-29T10:15:20.367Z,11.36
2017-10-29T10:17:47.212Z,10.80
2017-10-29T10:20:13.447Z,10.43
2017-10-29T10:22:39.578Z,10.29
2017-10-29T10:25:05.711Z,10.13
2017-10-29T10:27:31.846Z,10.18
2017-10-29T10:29:58.080Z,10.18
2017-10-29T10:32:24.311Z,10.08
2017-10-29T10:34:50.138Z,10.02
2017-10-29T10:37:15.927Z,9.97
2017-10-29T10:39:41.719Z,9.98
2017-10-29T10:42:07.480Z,10.09
2017-10-29T10:44:33.226Z,10.09
2017-10-29T10:46:58.991Z,10.15
2017-10-29T10:49:24.746Z,10.19
2017-10-29T10:51:50.513Z,10.31
2017-10-29T10:54:16.311Z,10.33
2017-10-29T10:56:42.063Z,10.41
2017-10-29T10:59:07.859Z,10.53
2017-10-29T11:01:33.616Z,10.56
2017-10-29T11:03:59.387Z,10.51
2017-10-29T11:06:25.255Z,10.64
2017-10-29T11:08:51.016Z,10.80
2017-10-29T11:11:16.775Z,10.84
2017-10-29T11:13:42.530Z,10.86
2017-10-29T11:16:08.271Z,11.04
2017-10-29T11:18:34.043Z,11.06
2017-10-29T11:20:59.806Z,10.96
2017-10-29T11:23:25.559Z,10.98
2017-10-29T11:25:51.318Z,10.96
2017-10-29T11:28:17.084Z,11.06
2017-10-29T11:30:42.855Z,11.25
2017-10-29T11:33:08.607Z,11.37
2017-10-29T11:35:34.395Z,11.26
2017-10-29T11:38:00.187Z,11.32
2017-10-29T11:40:25.935Z,11.37
2017-10-29T11:42:51.704Z,11.42
2017-10-29T11:45:17.459Z,11.20
2017-10-29T11:47:43.272Z,11.26
2017-10-29T11:50:09.026Z,11.16
2017-10-29T11:52:34.804Z,11.16
2017-10-29T11:55:00.569Z,11.13
2017-10-29T11:57:26.327Z,11.08
2017-10-29T11:59:52.075Z,11.22
2017-10-29T12:02:17.846Z,11.29
2017-10-29T12:04:43.630Z,11.28
2017-10-29T12:07:09.371Z,11.12
2017-10-29T12:09:35.136Z,11.07
2017-10-29T12:12:00.936Z,10.84
2017-10-29T12:14:26.676Z,10.65
2017-10-29T12:16:52.443Z,10.62
2017-10-29T12:19:18.212Z,10.52
2017-10-29T12:21:43.947Z,10.57
2017-10-29T12:24:09.728Z,10.58
2017-10-29T12:26:35.468Z,10.51
2017-10-29T12:29:01.218Z,10.42
2017-10-29T12:31:27.016Z,10.41
2017-10-29T12:33:52.765Z,10.32
2017-10-29T12:36:18.510Z,10.31
2017-10-29T12:38:44.315Z,10.30
2017-10-29T12:41:10.103Z,10.32
2017-10-29T12:43:35.849Z,10.34
2017-10-29T12:46:01.623Z,10.42
2017-10-29T12:48:27.393Z,10.35
2017-10-29T12:50:53.144Z,10.49
2017-10-29T12:53:18.907Z,10.69
2017-10-29T12:55:44.684Z,10.80
2017-10-29T12:58:10.435Z,10.99
2017-10-29T13:00:36.187Z,10.97
2017-10-29T13:03:01.947Z,11.02
2017-10-29T13:05:27.711Z,11.39
2017-10-29T13:07:53.499Z,11.76
2017-10-29T13:10:19.247Z,11.92
2017-10-29T13:12:45.017Z,12.23
2017-10-29T13:15:10.792Z,13.01
2017-10-29T13:17:36.544Z,13.74
2017-10-29T13:20:02.320Z,13.97
2017-10-29T13:22:28.073Z,13.82
2017-10-29T13:24:53.836Z,13.76
2017-10-29T13:27:19.587Z,13.59
2017-10-29T13:29:45.358Z,13.35
2017-10-29T13:32:11.103Z,13.45
2017-10-29T13:37:57.790Z,13.60
2017-10-29T13:40:34.110Z,14.01
2017-10-29T13:43:00.831Z,14.49
2017-10-29T13:45:27.628Z,14.75
2017-10-29T13:48:20.666Z,15.17
2017-10-29T13:50:46.469Z,14.79
2017-10-29T13:53:12.255Z,14.47
2017-10-29T13:55:38.062Z,14.71
2017-10-29T13:58:03.847Z,14.84
2017-10-29T14:00:29.595Z,14.56
2017-10-29T14:02:55.356Z,14.02
2017-10-29T14:05:21.140Z,13.63
2017-10-29T14:07:46.906Z,13.55
2017-10-29T14:10:12.699Z,13.64
2017-10-29T14:12:38.461Z,13.44
2017-10-29T14:15:04.223Z,13.27
2017-10-29T14:17:30.004Z,13.24
2017-10-29T14:19:55.763Z,13.25
2017-10-29T14:22:21.526Z,13.25
2017-10-29T14:24:47.323Z,13.15
2017-10-29T14:27:13.076Z,13.13
2017-10-29T14:29:38.843Z,13.04
2017-10-29T14:32:04.968Z,13.39
2017-10-29T14:34:31.045Z,13.69
2017-10-29T14:36:56.819Z,14.12
2017-10-29T14:39:22.601Z,14.61
2017-10-29T14:41:48.403Z,15.19
2017-10-29T14:44:14.183Z,15.29
2017-10-29T14:46:39.971Z,15.03
2017-10-29T14:49:05.729Z,14.56
2017-10-29T14:51:31.510Z,14.25
2017-10-29T14:53:57.307Z,13.87
2017-10-29T14:56:23.081Z,13.67
2017-10-29T14:58:48.843Z,13.69
2017-10-29T15:01:14.615Z,14.04
2017-10-29T15:03:40.375Z,14.39
2017-10-29T15:06:06.157Z,14.63
2017-10-29T15:08:31.926Z,14.69
2017-10-29T15:10:57.707Z,14.91
2017-10-29T15:13:23.495Z,14.76
2017-10-29T15:15:49.267Z,14.86
2017-10-29T15:18:15.013Z,14.87
2017-10-29T15:20:40.808Z,14.88
2017-10-29T15:23:06.586Z,14.54
2017-10-29T15:25:32.335Z,14.53
2017-10-29T15:27:58.127Z,14.51
2017-10-29T15:30:23.892Z,14.23
2017-10-29T15:32:49.696Z,13.85
2017-10-29T15:35:15.448Z,13.32
2017-10-29T15:37:41.235Z,12.76
2017-10-29T15:40:07.012Z,12.40
2017-10-29T15:42:32.767Z,12.29
2017-10-29T15:44:58.553Z,12.00
2017-10-29T15:47:24.315Z,11.88
2017-10-29T15:49:50.088Z,11.64
2017-10-29T15:52:15.884Z,11.53
2017-10-29T15:54:41.643Z,11.44
2017-10-29T15:57:07.409Z,11.31
2017-10-29T15:59:33.197Z,11.19
2017-10-29T16:01:58.946Z,11.17
2017-10-29T16:04:24.775Z,11.10
2017-10-29T16:06:50.564Z,11.02
2017-10-29T16:09:16.355Z,10.97
2017-10-29T16:11:42.122Z,10.85
2017-10-29T16:14:07.884Z,10.77
2017-10-29T16:16:33.666Z,10.78
2017-10-29T16:18:59.435Z,10.81
2017-10-29T16:21:25.188Z,10.71
2017-10-29T16:23:50.981Z,10.54
2017-10-29T16:26:16.735Z,10.40
2017-10-29T16:28:42.492Z,10.31
2017-10-29T16:31:08.302Z,10.17
2017-10-29T16:33:34.069Z,9.99
2017-10-29T16:35:59.828Z,9.83
2017-10-29T16:38:25.642Z,9.73
2017-10-29T16:40:51.428Z,9.52
2017-10-29T16:43:17.245Z,9.35
2017-10-29T16:45:43.027Z,9.36
2017-10-29T16:48:08.786Z,9.34
2017-10-29T16:50:34.567Z,9.36
2017-10-29T16:53:00.333Z,9.39
2017-10-29T16:55:26.207Z,9.34
2017-10-29T16:57:51.987Z,9.32
2017-10-29T17:00:17.767Z,9.33
2017-10-29T17:02:43.518Z,9.33
2017-10-29T17:05:09.334Z,9.37
2017-10-29T17:07:35.095Z,9.33
2017-10-29T17:10:00.940Z,9.27
2017-10-29T17:12:26.747Z,9.24
2017-10-29T17:14:52.504Z,9.17
2017-10-29T17:17:18.295Z,9.12
2017-10-29T17:19:44.062Z,9.06
2017-10-29T17:22:09.851Z,9.08
2017-10-29T17:24:35.624Z,9.20
2017-10-29T17:27:01.379Z,9.28
2017-10-29T17:29:27.139Z,9.29
2017-10-29T17:31:52.914Z,9.26
2017-10-29T17:34:18.683Z,9.19
2017-10-29T17:36:45.487Z,9.23
2017-10-29T17:39:11.345Z,9.19
2017-10-29T17:41:37.118Z,9.05
2017-10-29T17:44:02.890Z,8.94
2017-10-29T17:46:28.654Z,8.89
2017-10-29T17:48:54.412Z,8.96
2017-10-29T17:51:20.178Z,8.95
2017-10-29T17:53:45.967Z,8.88
2017-10-29T17:56:11.765Z,8.71
2017-10-29T17:58:37.559Z,8.62
2017-10-29T18:01:03.310Z,8.54
2017-10-29T18:03:29.087Z,8.47
2017-10-29T18:05:54.869Z,8.43
2017-10-29T18:08:20.643Z,8.35
2017-10-29T18:10:46.413Z,8.26
2017-10-29T18:13:12.194Z,8.28
2017-10-29T18:15:37.968Z,8.22
2017-10-29T18:18:03.779Z,8.28
2017-10-29T18:20:29.567Z,8.37
2017-10-29T18:22:55.338Z,8.39
2017-10-29T18:25:21.116Z,8.37
2017-10-29T18:27:46.875Z,8.33
2017-10-29T18:30:12.623Z,8.23
2017-10-29T18:32:38.392Z,8.20
2017-10-29T18:35:04.187Z,8.28
2017-10-29T18:37:29.964Z,8.32
2017-10-29T18:39:55.746Z,8.33
2017-10-29T18:42:21.547Z,8.38
2017-10-29T18:44:47.335Z,8.31
2017-10-29T18:47:13.153Z,8.24
2017-10-29T18:49:38.920Z,8.24
2017-10-29T18:52:04.686Z,8.18
2017-10-29T18:54:30.439Z,8.11
2017-10-29T18:56:56.196Z,8.10
2017-10-29T18:59:21.990Z,8.13
2017-10-29T19:01:47.740Z,8.04
2017-10-29T19:04:13.548Z,7.98
2017-10-29T19:06:39.314Z,7.89
2017-10-29T19:09:05.070Z,7.93
2017-10-29T19:11:30.926Z,7.90
2017-10-29T19:13:56.702Z,7.85
2017-10-29T19:16:22.469Z,7.83
2017-10-29T19:18:48.247Z,7.81
2017-10-29T19:21:14.030Z,7.77
2017-10-29T19:23:39.798Z,7.80
2017-10-29T19:26:05.565Z,7.80
2017-10-29T19:28:31.352Z,7.85
2017-10-29T19:30:57.126Z,7.76
2017-10-29T19:33:22.958Z,7.75
2017-10-29T19:35:48.768Z,7.71
2017-10-29T19:38:14.532Z,7.76
2017-10-29T19:40:40.295Z,7.82
2017-10-29T19:43:06.066Z,7.87
2017-10-29T19:45:31.851Z,7.87
2017-10-29T19:47:57.600Z,7.84
2017-10-29T19:50:23.344Z,7.78
2017-10-29T19:52:49.123Z,7.75
2017-10-29T19:55:14.871Z,7.74
2017-10-29T19:57:40.635Z,7.72
2017-10-29T20:00:06.445Z,7.62
2017-10-29T20:02:32.205Z,7.68
2017-10-29T20:04:58.102Z,7.62
2017-10-29T20:07:23.890Z,7.61
2017-10-29T20:09:49.651Z,7.53
2017-10-29T20:12:15.447Z,7.43
2017-10-29T20:14:41.216Z,7.42
2017-10-29T20:17:06.983Z,7.40
2017-10-29T20:19:32.755Z,7.46
2017-10-29T20:21:58.526Z,7.36
2017-10-29T20:24:24.303Z,7.22
2017-10-29T20:26:50.087Z,7.18
2017-10-29T20:29:15.883Z,7.13
2017-10-29T20:31:41.688Z,7.17
2017-10-29T20:34:07.429Z,7.06
2017-10-29T20:36:33.200Z,7.00
2017-10-29T20:38:58.979Z,6.89
2017-10-29T20:41:24.787Z,6.87
2017-10-29T20:43:50.584Z,6.84
2017-10-29T20:46:16.372Z,6.81
2017-10-29T20:48:42.143Z,6.74
2017-10-29T20:51:07.903Z,6.73
2017-10-29T20:53:33.683Z,6.82
2017-10-29T20:55:59.440Z,6.85
2017-10-29T20:58:25.244Z,6.80
2017-10-29T21:00:51.005Z,6.72
2017-10-29T21:03:16.759Z,6.71
2017-10-29T21:05:42.558Z,6.68
2017-10-29T21:08:08.348Z,6.65
2017-10-29T21:10:34.140Z,6.63
2017-10-29T21:12:59.895Z,6.58
2017-10-29T21:15:25.683Z,6.49
2017-10-29T21:17:51.464Z,6.50
2017-10-29T21:20:17.242Z,6.60
2017-10-29T21:22:45.998Z,6.68
2017-10-29T21:25:11.952Z,6.62
2017-10-29T21:27:37.728Z,6.63
2017-10-29T21:30:03.491Z,6.60
2017-10-29T21:32:29.283Z,6.65
2017-10-29T21:34:55.051Z,6.61
2017-10-29T21:37:20.816Z,6.65
2017-10-29T21:39:48.954Z,6.69
2017-10-29T21:42:14.780Z,6.66
2017-10-29T21:44:40.571Z,6.61
2017-10-29T21:47:06.317Z,6.52
2017-10-29T21:49:32.072Z,6.40
2017-10-29T21:51:57.876Z,6.28
2017-10-29T21:54:23.635Z,6.33
2017-10-29T21:56:49.421Z,6.33
2017-10-29T21:59:15.167Z,6.26
2017-10-29T22:01:40.928Z,6.23
2017-10-29T22:04:06.711Z,6.23
2017-10-29T22:06:32.451Z,6.34
2017-10-29T22:08:58.228Z,6.24
2017-10-29T22:11:23.975Z,6.18
2017-10-29T22:13:49.760Z,6.18
2017-10-29T22:16:15.512Z,6.13
2017-10-29T22:18:41.288Z,6.02
2017-10-29T22:21:07.062Z,5.94
2017-10-29T22:23:32.827Z,5.85
2017-10-29T22:25:58.588Z,5.85
2017-10-29T22:28:24.399Z,5.76
2017-10-29T22:30:50.174Z,5.76
2017-10-29T22:33:15.971Z,5.82
2017-10-29T22:35:41.734Z,5.90
2017-10-29T22:38:07.499Z,5.92
2017-10-29T22:40:33.283Z,5.90
2017-10-29T22:42:59.048Z,5.85
2017-10-29T22:45:24.829Z,5.70
2017-10-29T22:47:50.607Z,5.64
2017-10-29T22:50:16.360Z,5.69
2017-10-29T22:52:42.126Z,5.76
2017-10-29T22:55:07.974Z,5.83
2017-10-29T22:57:33.785Z,5.85
2017-10-29T22:59:59.555Z,5.73
2017-10-29T23:02:25.333Z,5.65
2017-10-29T23:05:03.554Z,5.67
2017-10-29T23:07:38.628Z,5.62
2017-10-29T23:10:04.415Z,5.66
2017-10-29T23:12:31.055Z,5.68
2017-10-29T23:14:56.807Z,5.72
2017-10-29T23:17:22.606Z,5.75
2017-10-29T23:19:48.382Z,5.78
2017-10-29T23:22:14.177Z,5.75
2017-10-29T23:24:39.956Z,5.66
2017-10-29T23:27:05.712Z,5.60
2017-10-29T23:29:31.508Z,5.61
2017-10-29T23:31:57.267Z,5.62
2017-10-29T23:34:23.035Z,5.53
2017-10-29T23:36:48.801Z,5.54
2017-10-29T23:39:14.588Z,5.51
2017-10-29T23:41:40.340Z,5.57
2017-10-29T23:44:06.124Z,5.62
2017-10-29T23:46:31.910Z,5.56
2017-10-29T23:48:57.664Z,5.64
2017-10-29T23:51:23.435Z,5.64
2017-10-29T23:53:49.210Z,5.55
2017-10-29T23:56:14.963Z,5.50
2017-10-29T23:58:40.739Z,5.58
